Time;durP1;ratioP1;P1;durP2;ratioP2;P2;SDS_P1;SDS_P2;PMS_P1;PMS_P2;Temp;Humidity;BMP_temperature;BMP_pressure;BME280_temperature;BME280_humidity;BME280_pressure;Samples;Min_cycle;Max_cycle;Signal;HPM_P1;HPM_P2
2020/12/30 00:01:07;;;;;;;7.00;6.25;;;1.80;1.00;;;;;;5019320;28;20227;-79
2020/12/30 00:03:34;;;;;;;6.32;5.72;;;1.70;1.00;;;;;;5019731;28;20245;-80
2020/12/30 00:06:01;;;;;;;8.82;6.75;;;1.70;1.00;;;;;;5027965;28;20219;-78
2020/12/30 00:08:28;;;;;;;7.00;6.22;;;1.70;1.00;;;;;;5023553;28;20234;-79
2020/12/30 00:10:55;;;;;;;6.90;6.32;;;1.70;1.00;;;;;;5019783;28;20235;-79
2020/12/30 00:13:22;;;;;;;7.97;6.35;;;1.60;1.00;;;;;;5026361;28;20230;-77
2020/12/30 00:15:48;;;;;;;7.05;6.35;;;1.60;1.00;;;;;;5019689;28;21154;-79
2020/12/30 00:18:14;;;;;;;9.65;6.68;;;1.60;1.00;;;;;;5028814;28;20242;-78
2020/12/30 00:20:41;;;;;;;6.13;5.50;;;1.60;1.00;;;;;;5023014;28;20223;-80
2020/12/30 00:23:07;;;;;;;8.60;7.07;;;1.60;1.00;;;;;;5016204;28;20216;-78
2020/12/30 00:25:34;;;;;;;7.47;6.75;;;1.50;1.00;;;;;;5025597;28;20238;-79
2020/12/30 00:28:01;;;;;;;7.63;6.93;;;1.50;1.00;;;;;;5024982;28;20242;-79
2020/12/30 00:30:31;;;;;;;7.18;6.47;;;1.50;1.00;;;;;;5027189;28;20257;-79
2020/12/30 00:32:57;;;;;;;6.72;6.07;;;1.40;1.00;;;;;;5022859;28;20347;-79
2020/12/30 00:35:24;;;;;;;7.93;6.63;;;1.40;1.00;;;;;;5026271;28;20222;-79
2020/12/30 00:37:50;;;;;;;7.43;6.55;;;1.40;1.00;;;;;;5023616;28;20709;-77
2020/12/30 00:40:17;;;;;;;9.30;6.78;;;1.30;1.00;;;;;;5024288;28;20230;-80
2020/12/30 00:42:43;;;;;;;7.25;6.20;;;1.40;1.00;;;;;;5034713;28;20243;-78
2020/12/30 00:45:10;;;;;;;6.88;6.28;;;1.30;1.00;;;;;;5033151;28;20226;-79
2020/12/30 00:47:37;;;;;;;6.90;6.30;;;1.40;1.00;;;;;;5033857;28;20214;-77
2020/12/30 00:50:05;;;;;;;7.13;6.43;;;1.30;1.00;;;;;;5038067;28;20206;-78
2020/12/30 00:52:31;;;;;;;6.65;6.13;;;1.30;1.00;;;;;;5032618;28;20214;-77
2020/12/30 00:54:57;;;;;;;7.57;6.80;;;1.40;1.00;;;;;;5024154;28;21561;-80
2020/12/30 00:57:24;;;;;;;6.70;6.10;;;1.30;1.00;;;;;;5020033;28;20223;-80
2020/12/30 00:59:50;;;;;;;7.28;6.28;;;1.30;1.00;;;;;;5020196;28;20227;-77
2020/12/30 01:02:17;;;;;;;6.90;6.30;;;1.30;1.00;;;;;;5021237;28;20242;-78
2020/12/30 01:04:44;;;;;;;7.25;6.55;;;1.30;1.00;;;;;;5025302;28;20222;-78
2020/12/30 01:07:12;;;;;;;8.38;7.00;;;1.30;1.00;;;;;;5023464;28;20246;-80
2020/12/30 01:09:38;;;;;;;7.43;6.63;;;1.30;1.00;;;;;;5025309;28;20215;-80
2020/12/30 01:12:06;;;;;;;7.95;6.30;;;1.30;1.00;;;;;;5028488;28;20242;-77
2020/12/30 01:14:33;;;;;;;6.95;6.35;;;1.30;1.00;;;;;;5033575;28;20261;-80
2020/12/30 01:16:59;;;;;;;8.05;6.75;;;1.30;1.00;;;;;;5018989;28;20223;-79
2020/12/30 01:19:26;;;;;;;6.20;5.70;;;1.30;1.00;;;;;;5017357;28;20249;-79
2020/12/30 01:21:53;;;;;;;7.13;6.50;;;1.30;1.00;;;;;;5020445;28;20280;-80
2020/12/30 01:24:19;;;;;;;6.85;6.15;;;1.30;1.00;;;;;;5022453;28;20233;-78
2020/12/30 01:26:49;;;;;;;6.63;6.00;;;1.30;1.00;;;;;;5026223;28;20238;-78
2020/12/30 01:29:15;;;;;;;6.70;6.10;;;1.30;1.00;;;;;;5029658;28;20281;-79
2020/12/30 01:31:42;;;;;;;7.18;6.47;;;1.40;1.00;;;;;;5034431;28;20206;-79
2020/12/30 01:34:09;;;;;;;8.48;7.65;;;1.40;1.00;;;;;;5052419;28;20245;-79
2020/12/30 01:36:37;;;;;;;7.68;6.60;;;1.40;1.00;;;;;;5024301;28;20223;-79
2020/12/30 01:39:05;;;;;;;6.90;6.40;;;1.40;1.00;;;;;;5022405;28;20223;-79
2020/12/30 01:41:31;;;;;;;8.18;6.93;;;1.40;1.00;;;;;;5031596;28;20211;-79
2020/12/30 01:44:04;;;;;;;8.05;7.03;;;1.30;1.00;;;;;;5027777;28;20856;-79
2020/12/30 01:46:36;;;;;;;7.63;6.35;;;1.30;1.00;;;;;;5034141;28;21087;-79
2020/12/30 01:49:05;;;;;;;7.45;6.63;;;1.40;1.00;;;;;;5040314;28;20359;-79
2020/12/30 01:51:32;;;;;;;7.22;6.57;;;1.40;1.00;;;;;;5018411;28;20218;-80
2020/12/30 01:54:01;;;;;;;6.50;5.90;;;1.30;1.00;;;;;;5019265;28;20354;-78
2020/12/30 01:56:31;;;;;;;7.05;6.25;;;1.40;1.00;;;;;;5018050;28;20238;-79
2020/12/30 01:58:57;;;;;;;7.00;6.30;;;1.40;1.00;;;;;;5011624;28;20227;-79
2020/12/30 02:01:28;;;;;;;7.68;6.88;;;1.40;1.00;;;;;;5015820;28;20215;-78
2020/12/30 02:03:56;;;;;;;7.38;6.50;;;1.40;1.00;;;;;;5020687;28;21073;-79
2020/12/30 02:06:23;;;;;;;7.20;6.07;;;1.40;1.00;;;;;;5018227;28;20219;-78
2020/12/30 02:08:50;;;;;;;7.22;6.57;;;1.40;1.00;;;;;;5016680;28;20639;-78
2020/12/30 02:11:18;;;;;;;7.35;6.75;;;1.40;1.00;;;;;;5019130;28;20226;-79
2020/12/30 02:13:45;;;;;;;7.22;6.53;;;1.40;1.00;;;;;;5022628;28;20805;-80
2020/12/30 02:16:13;;;;;;;7.22;6.53;;;1.40;1.00;;;;;;5026766;28;20220;-77
2020/12/30 02:18:39;;;;;;;9.60;6.63;;;1.50;1.00;;;;;;5029207;28;20257;-77
2020/12/30 02:21:06;;;;;;;7.70;6.60;;;1.50;1.00;;;;;;5033262;28;20234;-79
2020/12/30 02:23:35;;;;;;;6.15;5.65;;;1.60;1.00;;;;;;5031682;28;20259;-78
2020/12/30 02:26:02;;;;;;;6.97;6.35;;;1.60;1.00;;;;;;5033607;28;20231;-78
2020/12/30 02:28:28;;;;;;;7.95;6.70;;;1.60;1.00;;;;;;5035036;28;20234;-77
2020/12/30 02:30:55;;;;;;;9.73;5.88;;;1.60;1.00;;;;;;5032500;28;20677;-77
2020/12/30 02:33:21;;;;;;;7.45;6.75;;;1.60;1.00;;;;;;5032697;28;20325;-77
2020/12/30 02:35:47;;;;;;;7.13;6.00;;;1.60;1.00;;;;;;5033875;28;20219;-78
2020/12/30 02:38:14;;;;;;;6.60;5.38;;;1.70;1.00;;;;;;5024484;28;20234;-79
2020/12/30 02:40:41;;;;;;;7.10;6.40;;;1.70;1.00;;;;;;5032007;28;20214;-78
2020/12/30 02:43:08;;;;;;;7.20;6.57;;;1.70;1.00;;;;;;5034999;28;20290;-78
2020/12/30 02:45:34;;;;;;;9.35;6.30;;;1.70;1.00;;;;;;5024429;28;21278;-78
2020/12/30 02:48:00;;;;;;;6.40;5.70;;;1.70;1.00;;;;;;5021377;28;20233;-78
2020/12/30 02:50:27;;;;;;;6.15;5.65;;;1.70;1.00;;;;;;5015636;28;20227;-79
2020/12/30 02:52:53;;;;;;;7.43;6.03;;;1.70;1.00;;;;;;5016946;28;20219;-77
2020/12/30 02:55:19;;;;;;;6.45;5.85;;;1.70;1.00;;;;;;5020875;28;20267;-79
2020/12/30 02:57:46;;;;;;;6.05;5.40;;;1.70;1.00;;;;;;5016679;28;20239;-77
2020/12/30 03:00:13;;;;;;;6.47;5.88;;;1.70;1.00;;;;;;5015692;28;20587;-78
2020/12/30 03:02:40;;;;;;;6.13;5.53;;;1.60;1.00;;;;;;5013581;28;20227;-78
2020/12/30 03:05:06;;;;;;;6.30;5.22;;;1.60;1.00;;;;;;5017928;28;20226;-78
2020/12/30 03:07:32;;;;;;;6.35;5.82;;;1.60;1.00;;;;;;5021128;28;20970;-79
2020/12/30 03:09:58;;;;;;;7.20;5.55;;;1.60;1.00;;;;;;5018814;28;20225;-78
2020/12/30 03:12:25;;;;;;;5.60;5.00;;;1.50;1.00;;;;;;5022864;28;20234;-78
2020/12/30 03:14:51;;;;;;;6.82;5.75;;;1.50;1.00;;;;;;5022460;28;20259;-78
2020/12/30 03:17:19;;;;;;;6.63;5.97;;;1.40;1.00;;;;;;5035117;28;20227;-77
2020/12/30 03:19:45;;;;;;;6.20;5.60;;;1.40;1.00;;;;;;5038577;28;20231;-77
2020/12/30 03:22:11;;;;;;;6.40;5.78;;;1.40;1.00;;;;;;5035608;28;20223;-78
2020/12/30 03:24:38;;;;;;;5.55;5.00;;;1.40;1.00;;;;;;5038489;28;20804;-77
2020/12/30 03:27:04;;;;;;;5.75;5.13;;;1.30;1.00;;;;;;5035007;28;20230;-77
2020/12/30 03:29:30;;;;;;;9.73;5.88;;;1.30;1.00;;;;;;5032878;28;20233;-77
2020/12/30 03:31:57;;;;;;;6.00;5.40;;;1.30;1.00;;;;;;5028547;28;20242;-80
2020/12/30 03:34:24;;;;;;;6.95;6.00;;;1.30;1.00;;;;;;5019219;28;21112;-78
2020/12/30 03:36:51;;;;;;;6.63;5.35;;;1.30;1.00;;;;;;5029444;28;20211;-77
2020/12/30 03:39:18;;;;;;;6.57;5.97;;;1.30;1.00;;;;;;5027765;28;20231;-79
2020/12/30 03:41:44;;;;;;;5.93;5.32;;;1.30;1.00;;;;;;5022170;28;20227;-78
2020/12/30 03:44:11;;;;;;;6.82;5.57;;;1.40;1.00;;;;;;5025145;28;20222;-79
2020/12/30 03:46:37;;;;;;;7.00;5.78;;;1.30;1.00;;;;;;5019658;28;20226;-78
2020/12/30 03:49:03;;;;;;;6.13;5.57;;;1.40;1.00;;;;;;5025859;28;20277;-79
2020/12/30 03:51:30;;;;;;;6.55;5.53;;;1.40;1.00;;;;;;5023230;28;20238;-79
2020/12/30 03:53:57;;;;;;;7.18;5.38;;;1.50;1.00;;;;;;5021141;28;20219;-79
2020/12/30 03:56:23;;;;;;;5.43;3.75;;;1.50;1.00;;;;;;5027316;28;20237;-77
2020/12/30 03:58:49;;;;;;;5.00;4.35;;;1.50;1.00;;;;;;5021559;28;20254;-78
2020/12/30 04:01:16;;;;;;;5.20;4.22;;;1.60;1.00;;;;;;5019645;28;20270;-79
2020/12/30 04:03:42;;;;;;;5.47;4.72;;;1.60;1.00;;;;;;5014977;28;20265;-79
2020/12/30 04:06:08;;;;;;;5.05;4.53;;;1.60;1.00;;;;;;5016558;28;20294;-79
2020/12/30 04:08:35;;;;;;;5.88;4.53;;;1.60;1.00;;;;;;5016613;28;20270;-79
2020/12/30 04:11:02;;;;;;;5.10;4.18;;;1.60;1.00;;;;;;5017495;28;20235;-79
2020/12/30 04:13:28;;;;;;;6.20;4.45;;;1.60;1.00;;;;;;5022479;28;20278;-79
2020/12/30 04:15:55;;;;;;;4.88;4.30;;;1.70;1.00;;;;;;5026399;28;20226;-80
2020/12/30 04:18:22;;;;;;;5.03;4.47;;;1.70;1.00;;;;;;5026165;28;20234;-79
2020/12/30 04:20:48;;;;;;;5.35;4.95;;;1.60;1.00;;;;;;5026333;28;20237;-79
2020/12/30 04:23:15;;;;;;;5.20;4.70;;;1.70;1.00;;;;;;5031208;28;20218;-80
2020/12/30 04:25:47;;;;;;;6.25;5.70;;;1.70;1.00;;;;;;5020268;28;20227;-80
2020/12/30 04:28:14;;;;;;;5.82;5.10;;;1.70;1.00;;;;;;5025819;28;20715;-79
2020/12/30 04:30:40;;;;;;;5.90;4.57;;;1.60;1.00;;;;;;5022887;28;20233;-80
2020/12/30 04:33:07;;;;;;;5.35;4.85;;;1.60;1.00;;;;;;5025202;28;20211;-80
2020/12/30 04:35:33;;;;;;;5.20;4.70;;;1.50;1.00;;;;;;5025493;28;20223;-80
2020/12/30 04:37:59;;;;;;;5.70;5.00;;;1.50;1.00;;;;;;5019649;28;20258;-79
2020/12/30 04:40:27;;;;;;;6.93;4.90;;;1.40;1.00;;;;;;5020548;28;20254;-78
2020/12/30 04:42:59;;;;;;;6.03;5.47;;;1.40;1.00;;;;;;5019103;28;20234;-78
2020/12/30 04:45:26;;;;;;;6.20;5.15;;;1.40;1.00;;;;;;5025621;28;20250;-78
2020/12/30 04:47:55;;;;;;;5.10;4.60;;;1.30;1.00;;;;;;5022861;28;20943;-79
2020/12/30 04:50:22;;;;;;;6.80;4.85;;;1.30;1.00;;;;;;5017723;28;20251;-77
2020/12/30 04:52:49;;;;;;;4.63;4.22;;;1.20;1.00;;;;;;5024639;28;20234;-79
2020/12/30 04:55:23;;;;;;;6.63;5.28;;;1.20;1.00;;;;;;5025032;28;20231;-79
2020/12/30 04:58:01;;;;;;;6.97;4.97;;;1.10;1.00;;;;;;5012578;28;20223;-79
2020/12/30 05:00:27;;;;;;;4.93;4.53;;;1.10;1.00;;;;;;5017886;28;20277;-80
2020/12/30 05:03:00;;;;;;;5.13;4.63;;;1.00;1.00;;;;;;5018527;28;20234;-79
2020/12/30 05:05:27;;;;;;;7.18;5.05;;;1.10;1.00;;;;;;5021938;28;20669;-79
2020/12/30 05:07:56;;;;;;;5.47;4.97;;;1.10;1.00;;;;;;5021785;28;20226;-78
2020/12/30 05:10:23;;;;;;;5.47;4.80;;;1.10;1.00;;;;;;5020640;28;20245;-78
2020/12/30 05:12:53;;;;;;;5.78;4.70;;;1.00;1.00;;;;;;5022369;28;20986;-79
2020/12/30 05:15:21;;;;;;;5.90;5.10;;;1.00;1.00;;;;;;5016684;28;20747;-78
2020/12/30 05:17:48;;;;;;;7.57;5.15;;;1.00;1.00;;;;;;5018801;28;20238;-79
2020/12/30 05:20:15;;;;;;;5.10;4.47;;;1.00;1.00;;;;;;5018868;28;20226;-81
2020/12/30 05:22:41;;;;;;;5.32;4.25;;;1.00;1.00;;;;;;5025625;28;20325;-79
2020/12/30 05:25:08;;;;;;;5.90;5.30;;;1.00;1.00;;;;;;5034471;28;20235;-77
2020/12/30 05:27:36;;;;;;;5.55;5.03;;;1.00;1.00;;;;;;5034915;28;20219;-76
2020/12/30 05:30:04;;;;;;;5.43;4.88;;;1.00;1.00;;;;;;5041798;28;20293;-77
2020/12/30 05:32:35;;;;;;;5.28;4.75;;;1.00;1.00;;;;;;5022158;28;20215;-80
2020/12/30 05:35:03;;;;;;;8.05;5.40;;;1.00;1.00;;;;;;5018810;28;20316;-78
2020/12/30 05:37:31;;;;;;;6.32;4.70;;;1.00;1.00;;;;;;5016326;28;20273;-79
2020/12/30 05:39:57;;;;;;;8.10;5.35;;;1.00;1.00;;;;;;5024150;28;20222;-78
2020/12/30 05:42:24;;;;;;;6.10;4.55;;;0.90;1.00;;;;;;5020632;28;20306;-77
2020/12/30 05:44:52;;;;;;;5.90;4.40;;;0.90;1.00;;;;;;5023672;28;20632;-77
2020/12/30 05:47:20;;;;;;;6.55;5.22;;;0.90;1.00;;;;;;5021811;28;21070;-78
2020/12/30 05:49:48;;;;;;;5.55;4.85;;;0.90;1.00;;;;;;5020541;28;20233;-79
2020/12/30 05:52:17;;;;;;;8.02;5.30;;;0.90;1.00;;;;;;5022758;28;20265;-79
2020/12/30 05:54:52;;;;;;;5.65;5.15;;;0.80;1.00;;;;;;5025764;28;20263;-79
2020/12/30 05:57:27;;;;;;;8.60;5.57;;;0.80;1.00;;;;;;5018529;28;20226;-79
2020/12/30 05:59:56;;;;;;;6.07;5.05;;;0.80;1.00;;;;;;5023247;28;20222;-79
2020/12/30 06:02:25;;;;;;;9.27;6.35;;;0.80;1.00;;;;;;5026448;28;20218;-78
2020/12/30 06:04:53;;;;;;;7.18;5.65;;;0.80;1.00;;;;;;5017168;28;20315;-78
2020/12/30 06:07:20;;;;;;;5.68;4.75;;;0.80;1.00;;;;;;5020228;28;20254;-79
2020/12/30 06:09:54;;;;;;;7.03;5.40;;;0.80;1.00;;;;;;5017565;28;20223;-79
2020/12/30 06:12:27;;;;;;;6.30;5.70;;;0.80;1.00;;;;;;5019812;28;20284;-80
2020/12/30 06:14:55;;;;;;;6.25;5.53;;;0.80;1.00;;;;;;5036794;28;20282;-77
2020/12/30 06:17:28;;;;;;;5.93;5.10;;;0.80;1.00;;;;;;5025499;28;21003;-77
2020/12/30 06:19:56;;;;;;;5.72;5.13;;;0.80;1.00;;;;;;5030378;28;20225;-78
2020/12/30 06:22:24;;;;;;;6.85;4.63;;;0.80;1.00;;;;;;5021529;28;20281;-79
2020/12/30 06:24:51;;;;;;;7.65;5.13;;;0.80;1.00;;;;;;5034137;28;20274;-77
2020/12/30 06:27:24;;;;;;;8.23;5.07;;;0.80;1.00;;;;;;5029087;28;20207;-77
2020/12/30 06:29:53;;;;;;;6.53;5.25;;;0.70;1.00;;;;;;5035494;28;20211;-77
2020/12/30 06:32:30;;;;;;;6.60;5.80;;;0.70;1.00;;;;;;5029719;28;20211;-78
2020/12/30 06:35:02;;;;;;;8.00;5.85;;;0.70;1.00;;;;;;5052721;28;20273;-77
2020/12/30 06:37:31;;;;;;;6.65;6.00;;;0.70;1.00;;;;;;5028032;28;20219;-79
2020/12/30 06:40:17;;;;;;;6.70;6.07;;;0.60;1.00;;;;;;5026146;28;20306;-79
2020/12/30 06:42:43;;;;;;;6.60;5.75;;;0.60;1.00;;;;;;5021723;28;20210;-78
2020/12/30 06:45:13;;;;;;;6.18;5.57;;;0.60;1.00;;;;;;5033259;28;20233;-77
2020/12/30 06:48:00;;;;;;;6.75;6.15;;;0.50;1.00;;;;;;5033416;28;20234;-78
2020/12/30 06:50:28;;;;;;;6.25;5.50;;;0.60;1.00;;;;;;5025597;28;20229;-80
2020/12/30 06:52:54;;;;;;;6.90;6.18;;;0.50;1.00;;;;;;5013920;28;20231;-78
2020/12/30 06:55:48;;;;;;;7.10;5.40;;;0.60;1.00;;;;;;5017646;28;20235;-79
2020/12/30 06:58:41;;;;;;;6.70;6.10;;;0.60;1.00;;;;;;4981159;28;20451;-79
2020/12/30 07:01:08;;;;;;;10.52;6.10;;;0.60;1.00;;;;;;5017709;28;20223;-77
2020/12/30 07:03:34;;;;;;;6.70;6.00;;;0.50;1.00;;;;;;5021873;28;20265;-77
2020/12/30 07:06:22;;;;;;;8.25;6.10;;;0.60;1.00;;;;;;5022324;28;20688;-78
2020/12/30 07:08:49;;;;;;;10.02;6.22;;;0.50;1.00;;;;;;5025186;28;20384;-80
2020/12/30 07:11:40;;;;;;;9.07;6.63;;;0.50;1.00;;;;;;5016507;28;20230;-79
2020/12/30 07:14:09;;;;;;;10.02;7.00;;;0.50;1.00;;;;;;5013782;28;20230;-79
2020/12/30 07:16:36;;;;;;;7.50;6.65;;;0.40;1.00;;;;;;5021870;28;20301;-77
2020/12/30 07:19:09;;;;;;;9.23;7.28;;;0.40;1.00;;;;;;5036916;28;20234;-77
2020/12/30 07:21:56;;;;;;;7.57;6.82;;;0.40;1.00;;;;;;5039148;28;20207;-78
2020/12/30 07:24:25;;;;;;;9.88;7.00;;;0.40;1.00;;;;;;5037326;28;20219;-77
2020/12/30 07:26:54;;;;;;;7.60;5.93;;;0.50;1.00;;;;;;5017611;28;20235;-78
2020/12/30 07:29:20;;;;;;;13.00;6.78;;;0.50;1.00;;;;;;5016796;28;20226;-80
2020/12/30 07:31:49;;;;;;;7.43;5.68;;;0.50;1.00;;;;;;5016737;28;20586;-79
2020/12/30 07:34:20;;;;;;;10.02;7.22;;;0.50;1.00;;;;;;5023709;28;20251;-78
2020/12/30 07:36:48;;;;;;;9.93;7.32;;;0.40;1.00;;;;;;5029898;28;20219;-79
2020/12/30 07:39:15;;;;;;;8.70;7.82;;;0.40;1.00;;;;;;5026755;28;20231;-80
2020/12/30 07:41:46;;;;;;;9.32;6.75;;;0.40;1.00;;;;;;5026850;28;20226;-80
2020/12/30 07:44:13;;;;;;;9.32;5.90;;;0.40;1.00;;;;;;5020025;28;20218;-80
2020/12/30 07:46:40;;;;;;;7.60;6.35;;;0.50;1.00;;;;;;5017629;28;20227;-79
2020/12/30 07:49:08;;;;;;;9.20;7.00;;;0.50;1.00;;;;;;5020276;28;20297;-77
2020/12/30 07:51:34;;;;;;;7.10;6.40;;;0.40;1.00;;;;;;5015655;28;20230;-79
2020/12/30 07:54:02;;;;;;;8.90;6.90;;;0.40;1.00;;;;;;5019737;28;20234;-80
2020/12/30 07:56:28;;;;;;;7.72;5.82;;;0.40;1.00;;;;;;5019580;28;20258;-80
2020/12/30 07:58:54;;;;;;;7.72;6.93;;;0.50;1.00;;;;;;5020787;28;20727;-81
2020/12/30 08:01:21;;;;;;;8.40;7.47;;;0.50;1.00;;;;;;5019746;28;20223;-81
2020/12/30 08:03:47;;;;;;;8.20;6.80;;;0.50;1.00;;;;;;5019793;28;20255;-81
2020/12/30 08:06:16;;;;;;;8.63;7.60;;;0.50;1.00;;;;;;5018014;28;20230;-82
2020/12/30 08:08:43;;;;;;;10.52;7.20;;;0.60;1.00;;;;;;5013676;28;20231;-81
2020/12/30 08:11:10;;;;;;;8.85;7.22;;;0.60;1.00;;;;;;5019952;28;20226;-79
2020/12/30 08:13:39;;;;;;;7.32;6.60;;;0.70;1.00;;;;;;5026485;28;20246;-81
2020/12/30 08:16:11;;;;;;;7.70;6.90;;;0.70;1.00;;;;;;5028773;28;21148;-82
2020/12/30 08:18:50;;;;;;;7.53;6.82;;;0.80;1.00;;;;;;5032210;28;20297;-81
2020/12/30 08:21:18;;;;;;;8.60;6.82;;;0.90;1.00;;;;;;5029748;28;20219;-80
2020/12/30 08:23:44;;;;;;;7.15;6.43;;;1.20;1.00;;;;;;5026279;28;20230;-81
2020/12/30 08:26:11;;;;;;;7.90;7.10;;;2.00;1.00;;;;;;5020415;28;20226;-81
2020/12/30 08:28:39;;;;;;;8.02;6.95;;;2.40;1.00;;;;;;5020736;28;20343;-80
2020/12/30 08:31:15;;;;;;;7.65;6.40;;;2.70;1.00;;;;;;5019592;28;20250;-80
2020/12/30 08:33:45;;;;;;;8.85;6.28;;;2.80;1.00;;;;;;5019849;28;20981;-79
2020/12/30 08:36:21;;;;;;;7.78;6.45;;;2.70;1.00;;;;;;5022077;28;20790;-80
2020/12/30 08:38:50;;;;;;;7.38;6.68;;;2.60;1.00;;;;;;5019970;28;20227;-79
2020/12/30 08:41:23;;;;;;;11.13;5.70;;;2.50;1.00;;;;;;5026782;28;20234;-80
2020/12/30 08:43:56;;;;;;;6.95;6.25;;;2.50;1.00;;;;;;5033361;28;20230;-80
2020/12/30 08:46:25;;;;;;;7.35;6.72;;;2.40;1.00;;;;;;5037939;28;20235;-83
2020/12/30 08:48:53;;;;;;;11.63;7.00;;;2.30;1.00;;;;;;5018755;28;20809;-83
2020/12/30 08:51:32;;;;;;;8.50;6.20;;;2.30;1.00;;;;;;5016947;28;21091;-83
2020/12/30 08:53:59;;;;;;;6.88;6.22;;;2.20;1.00;;;;;;5018112;28;20326;-84
2020/12/30 08:56:26;;;;;;;8.02;7.25;;;2.10;1.00;;;;;;5014418;28;20227;-83
2020/12/30 08:58:54;;;;;;;9.90;7.60;;;2.20;1.00;;;;;;5013185;28;20282;-83
2020/12/30 09:01:21;;;;;;;10.32;8.05;;;2.20;1.00;;;;;;5028355;28;20231;-81
2020/12/30 09:03:48;;;;;;;8.55;7.65;;;2.30;1.00;;;;;;5025350;28;20238;-81
2020/12/30 09:06:26;;;;;;;8.05;7.10;;;2.40;1.00;;;;;;5010517;28;20227;-82
2020/12/30 09:08:52;;;;;;;10.07;8.02;;;2.40;1.00;;;;;;5010054;28;20223;-80
2020/12/30 09:11:20;;;;;;;7.55;6.85;;;2.60;1.00;;;;;;5015698;28;21115;-82
2020/12/30 09:13:48;;;;;;;8.60;7.70;;;2.70;1.00;;;;;;5010333;28;20884;-81
2020/12/30 09:16:14;;;;;;;10.15;7.75;;;3.00;1.00;;;;;;5009084;28;20224;-80
2020/12/30 09:18:40;;;;;;;9.88;7.80;;;3.40;1.00;;;;;;5015146;28;20234;-79
2020/12/30 09:21:22;;;;;;;9.35;7.45;;;3.80;1.00;;;;;;5014350;28;20226;-81
2020/12/30 09:23:49;;;;;;;8.40;7.60;;;4.00;1.00;;;;;;5013539;28;20780;-79
2020/12/30 09:26:27;;;;;;;9.48;8.55;;;4.10;1.00;;;;;;5015658;28;21008;-80
2020/12/30 09:28:54;;;;;;;8.20;6.78;;;4.10;1.00;;;;;;5017852;28;20238;-80
2020/12/30 09:31:21;;;;;;;9.55;7.15;;;4.20;1.00;;;;;;5017769;28;20263;-79
2020/12/30 09:33:48;;;;;;;7.15;6.47;;;4.50;1.00;;;;;;5018056;28;20239;-79
2020/12/30 09:36:14;;;;;;;7.50;6.50;;;4.70;1.00;;;;;;5033453;28;20218;-79
2020/12/30 09:38:41;;;;;;;6.75;6.10;;;4.60;1.00;;;;;;5030703;28;20242;-79
2020/12/30 09:41:14;;;;;;;6.70;6.10;;;4.50;1.00;;;;;;5033082;28;20223;-79
2020/12/30 09:43:45;;;;;;;6.95;6.30;;;4.30;1.00;;;;;;5034424;28;20234;-79
2020/12/30 09:46:21;;;;;;;6.05;5.55;;;4.30;1.00;;;;;;5024923;28;20311;-80
2020/12/30 09:48:48;;;;;;;7.70;6.97;;;4.40;1.00;;;;;;5017987;28;20321;-80
2020/12/30 09:51:17;;;;;;;6.90;6.25;;;4.50;1.00;;;;;;5016021;28;20223;-80
2020/12/30 09:53:44;;;;;;;6.40;5.80;;;4.50;1.00;;;;;;5022423;28;20346;-80
2020/12/30 09:56:15;;;;;;;8.82;8.02;;;4.50;1.00;;;;;;5033926;28;20240;-79
2020/12/30 09:58:41;;;;;;;8.75;6.20;;;4.50;1.00;;;;;;5020971;28;20235;-78
2020/12/30 10:01:07;;;;;;;9.13;7.05;;;4.80;1.00;;;;;;5015025;28;20223;-79
2020/12/30 10:03:34;;;;;;;7.65;5.65;;;5.30;1.00;;;;;;5017442;28;20285;-79
2020/12/30 10:06:01;;;;;;;5.30;4.65;;;5.70;1.00;;;;;;5015036;28;20624;-79
2020/12/30 10:08:27;;;;;;;6.32;5.35;;;5.90;1.00;;;;;;5015357;28;20231;-80
2020/12/30 10:10:53;;;;;;;12.00;10.63;;;6.10;1.00;;;;;;5016558;28;20234;-79
2020/12/30 10:13:20;;;;;;;6.68;4.95;;;6.60;1.00;;;;;;5013197;28;20666;-79
2020/12/30 10:15:46;;;;;;;6.30;5.22;;;6.80;1.00;;;;;;5013174;28;20263;-78
2020/12/30 10:18:12;;;;;;;6.43;5.55;;;6.60;1.00;;;;;;5013572;28;20227;-81
2020/12/30 10:20:40;;;;;;;7.22;5.35;;;6.30;1.00;;;;;;5015914;28;20223;-79
2020/12/30 10:23:09;;;;;;;5.85;5.30;;;6.20;1.00;;;;;;5009539;28;20210;-82
2020/12/30 10:25:36;;;;;;;6.35;5.75;;;6.20;1.00;;;;;;5014810;28;20231;-79
2020/12/30 10:28:02;;;;;;;6.60;5.97;;;6.40;1.00;;;;;;5011661;28;20321;-79
2020/12/30 10:30:28;;;;;;;7.50;5.53;;;6.40;1.00;;;;;;5016170;28;20258;-79
2020/12/30 10:32:56;;;;;;;7.25;6.03;;;6.40;1.00;;;;;;5016460;28;20310;-78
2020/12/30 10:35:22;;;;;;;7.40;6.70;;;6.70;1.00;;;;;;5016487;28;20235;-79
2020/12/30 10:37:50;;;;;;;6.22;5.50;;;6.70;1.00;;;;;;5016502;28;20234;-79
2020/12/30 10:40:16;;;;;;;6.30;5.70;;;6.70;1.00;;;;;;5018542;28;20338;-78
2020/12/30 10:42:42;;;;;;;5.93;5.35;;;6.80;1.00;;;;;;5014764;28;20231;-79
2020/12/30 10:45:09;;;;;;;7.18;5.80;;;6.80;1.00;;;;;;5020961;28;20253;-79
2020/12/30 10:47:35;;;;;;;6.10;4.90;;;7.00;1.00;;;;;;5018634;28;20704;-79
2020/12/30 10:50:01;;;;;;;5.50;4.65;;;7.40;1.00;;;;;;5015111;28;20285;-80
2020/12/30 10:52:27;;;;;;;5.68;4.53;;;7.80;1.00;;;;;;5024093;28;20230;-78
2020/12/30 10:54:54;;;;;;;7.97;5.80;;;7.80;1.00;;;;;;5021225;28;20253;-77
2020/12/30 10:57:20;;;;;;;7.90;5.90;;;7.70;1.00;;;;;;5021630;28;20282;-79
2020/12/30 10:59:47;;;;;;;6.97;6.22;;;7.70;1.00;;;;;;5028344;28;20318;-78
2020/12/30 11:02:13;;;;;;;6.47;5.63;;;7.70;1.00;;;;;;5027926;28;20235;-78
2020/12/30 11:04:39;;;;;;;6.40;4.85;;;7.50;1.00;;;;;;5027748;28;20223;-77
2020/12/30 11:07:05;;;;;;;4.95;4.55;;;7.30;1.00;;;;;;5031299;28;20219;-79
2020/12/30 11:09:32;;;;;;;6.28;5.35;;;7.50;1.00;;;;;;5032492;28;20211;-76
2020/12/30 11:11:59;;;;;;;5.88;5.38;;;7.80;1.00;;;;;;5028055;28;20219;-79
2020/12/30 11:14:26;;;;;;;5.97;5.38;;;8.20;1.00;;;;;;5021971;28;20244;-79
2020/12/30 11:16:52;;;;;;;6.10;5.18;;;8.80;1.00;;;;;;5017798;28;20223;-79
2020/12/30 11:19:19;;;;;;;5.25;4.78;;;9.30;1.00;;;;;;4995021;28;639023;-79
2020/12/30 11:21:50;;;;;;;7.60;5.05;;;9.80;1.00;;;;;;5015340;28;20412;-78
2020/12/30 11:24:16;;;;;;;4.80;4.40;;;10.10;1.00;;;;;;5025731;28;20223;-79
2020/12/30 11:26:44;;;;;;;5.40;4.57;;;10.10;1.00;;;;;;5020431;28;20238;-80
2020/12/30 11:29:11;;;;;;;5.70;4.65;;;10.20;1.00;;;;;;5025749;28;20231;-79
2020/12/30 11:31:38;;;;;;;6.57;4.60;;;10.20;1.00;;;;;;5040361;28;20206;-79
2020/12/30 11:34:04;;;;;;;5.50;4.93;;;10.60;1.00;;;;;;5026845;28;20385;-79
2020/12/30 11:36:30;;;;;;;5.30;4.80;;;11.00;1.00;;;;;;5026688;28;20250;-81
2020/12/30 11:38:57;;;;;;;5.32;4.75;;;11.30;1.00;;;;;;5020302;28;20237;-76
2020/12/30 11:41:23;;;;;;;5.05;4.55;;;11.00;1.00;;;;;;5018520;28;20230;-77
2020/12/30 11:43:49;;;;;;;6.07;5.20;;;10.90;1.00;;;;;;5019829;28;20222;-78
2020/12/30 11:46:17;;;;;;;8.35;5.72;;;10.90;1.00;;;;;;5026998;28;20231;-78
2020/12/30 11:48:43;;;;;;;6.90;5.15;;;11.20;1.00;;;;;;5028903;28;20243;-77
2020/12/30 11:51:10;;;;;;;6.20;5.60;;;11.90;1.00;;;;;;5016781;28;20268;-78
2020/12/30 11:53:37;;;;;;;5.65;5.15;;;12.20;1.00;;;;;;5032526;28;20218;-80
2020/12/30 11:56:04;;;;;;;5.18;4.60;;;12.20;1.00;;;;;;5020820;28;20224;-80
2020/12/30 11:58:30;;;;;;;5.63;5.05;;;11.90;1.00;;;;;;5019259;28;20226;-80
2020/12/30 12:00:57;;;;;;;5.55;5.05;;;11.70;1.00;;;;;;5011625;28;20236;-78
2020/12/30 12:03:24;;;;;;;5.93;4.83;;;11.60;1.00;;;;;;5014411;28;20260;-80
2020/12/30 12:05:51;;;;;;;5.22;4.72;;;11.90;1.00;;;;;;5016246;28;20471;-80
2020/12/30 12:08:17;;;;;;;5.63;4.50;;;12.30;1.00;;;;;;5020151;28;21398;-79
2020/12/30 12:10:43;;;;;;;6.38;4.90;;;12.60;1.00;;;;;;5018661;28;20489;-80
2020/12/30 12:13:09;;;;;;;4.70;4.22;;;12.70;1.00;;;;;;5016939;28;21276;-80
2020/12/30 12:15:36;;;;;;;10.85;8.77;;;12.00;1.00;;;;;;5023750;28;21041;-79
2020/12/30 12:18:02;;;;;;;5.97;5.27;;;12.20;1.00;;;;;;5017109;28;20232;-79
2020/12/30 12:20:29;;;;;;;5.63;5.13;;;12.90;1.00;;;;;;5013893;28;20456;-79
2020/12/30 12:22:55;;;;;;;5.40;4.50;;;13.30;1.00;;;;;;5015291;28;20539;-80
2020/12/30 12:25:21;;;;;;;5.50;5.00;;;13.30;1.00;;;;;;5027157;28;21620;-78
2020/12/30 12:27:48;;;;;;;6.97;5.60;;;13.00;1.00;;;;;;5027921;28;20259;-80
2020/12/30 12:30:14;;;;;;;4.93;4.50;;;13.00;1.00;;;;;;5016766;28;22323;-79
2020/12/30 12:32:40;;;;;;;10.03;5.30;;;13.30;1.00;;;;;;5016489;28;20462;-79
2020/12/30 12:35:07;;;;;;;5.50;5.00;;;13.90;1.00;;;;;;5013017;28;20492;-79
2020/12/30 12:37:35;;;;;;;6.40;4.53;;;14.20;1.00;;;;;;5017364;28;20446;-79
2020/12/30 12:40:01;;;;;;;4.90;4.50;;;14.30;1.00;;;;;;5017066;28;20940;-80
2020/12/30 12:42:27;;;;;;;5.50;4.93;;;13.70;1.00;;;;;;5022358;28;20469;-77
2020/12/30 12:44:54;;;;;;;5.60;5.10;;;13.70;1.00;;;;;;5020145;28;20434;-80
2020/12/30 12:47:20;;;;;;;5.80;5.30;;;13.60;1.00;;;;;;5023555;28;20453;-80
2020/12/30 12:49:47;;;;;;;7.20;5.27;;;13.80;1.00;;;;;;5008902;28;20452;-80
2020/12/30 12:52:13;;;;;;;5.67;5.17;;;14.20;1.00;;;;;;5023934;28;20466;-78
2020/12/30 12:54:41;;;;;;;5.53;5.03;;;14.70;1.00;;;;;;5018307;28;21750;-79
2020/12/30 12:57:08;;;;;;;5.43;4.93;;;14.10;1.00;;;;;;5015441;28;21807;-78
2020/12/30 12:59:34;;;;;;;5.70;5.17;;;13.50;1.00;;;;;;5011890;28;20992;-80
2020/12/30 13:02:01;;;;;;;6.80;6.17;;;13.10;1.00;;;;;;5019535;28;20422;-81
2020/12/30 13:04:28;;;;;;;6.00;5.40;;;12.60;1.00;;;;;;5018681;28;20450;-82
2020/12/30 13:06:54;;;;;;;4.90;4.47;;;12.80;1.00;;;;;;5017679;28;20277;-78
2020/12/30 13:09:20;;;;;;;5.87;5.27;;;13.20;1.00;;;;;;5014374;28;21155;-76